Time;durP1;ratioP1;P1;durP2;ratioP2;P2;SDS_P1;SDS_P2;PMS_P1;PMS_P2;Temp;Humidity;BMP_temperature;BMP_pressure;BME280_temperature;BME280_humidity;BME280_pressure;Samples;Min_cycle;Max_cycle;Signal;HPM_P1;HPM_P2
2023/12/23 00:01:01;;;;;;;6.13;2.08;;;;;;;4.71;100.00;99433.81;5008463;28;20092;-65
2023/12/23 00:03:28;;;;;;;8.00;2.28;;;;;;;4.65;100.00;99428.81;5011967;28;20054;-65
2023/12/23 00:05:55;;;;;;;7.03;2.17;;;;;;;4.51;100.00;99403.34;5012219;28;20053;-65
2023/12/23 00:08:21;;;;;;;7.18;1.92;;;;;;;4.71;100.00;99423.44;5010775;28;20127;-65
2023/12/23 00:10:48;;;;;;;5.75;2.10;;;;;;;4.74;100.00;99419.88;5010587;28;20134;-65
2023/12/23 00:13:15;;;;;;;5.38;2.03;;;;;;;4.69;100.00;99419.19;4998939;28;20056;-65
2023/12/23 00:15:41;;;;;;;5.95;2.20;;;;;;;4.73;100.00;99418.19;5011017;28;20061;-65
2023/12/23 00:18:08;;;;;;;4.18;1.80;;;;;;;4.77;100.00;99421.53;5003757;28;20054;-65
2023/12/23 00:20:36;;;;;;;9.13;2.20;;;;;;;4.78;100.00;99424.06;5011410;28;20544;-66
2023/12/23 00:23:03;;;;;;;5.97;2.25;;;;;;;4.74;100.00;99412.94;5012289;28;20443;-66
2023/12/23 00:25:30;;;;;;;6.10;2.00;;;;;;;4.77;100.00;99412.00;5012229;28;20069;-66
2023/12/23 00:27:57;;;;;;;5.43;2.15;;;;;;;4.75;100.00;99417.22;5011359;28;20050;-66
2023/12/23 00:30:23;;;;;;;5.25;1.70;;;;;;;4.74;100.00;99407.75;5005912;28;20137;-66
2023/12/23 00:32:51;;;;;;;5.75;1.90;;;;;;;4.74;100.00;99405.16;4995605;28;20050;-66
2023/12/23 00:35:17;;;;;;;4.18;1.70;;;;;;;4.79;100.00;99404.16;5011034;28;20137;-66
2023/12/23 00:37:44;;;;;;;6.32;1.85;;;;;;;4.72;100.00;99396.59;4994526;28;20053;-66
2023/12/23 00:40:12;;;;;;;6.00;2.22;;;;;;;4.74;100.00;99404.31;5009476;28;20396;-66
2023/12/23 00:42:39;;;;;;;6.90;1.70;;;;;;;4.73;100.00;99398.28;5011774;28;20057;-66
2023/12/23 00:45:06;;;;;;;4.22;1.80;;;;;;;4.77;100.00;99405.97;5011949;28;20054;-66
2023/12/23 00:47:33;;;;;;;4.93;2.10;;;;;;;4.67;100.00;99382.94;5008029;28;20053;-66
2023/12/23 00:50:04;;;;;;;4.43;1.65;;;;;;;4.75;100.00;99395.66;5005252;28;20053;-66
2023/12/23 00:52:31;;;;;;;4.50;1.70;;;;;;;4.72;100.00;99378.44;5007000;28;20062;-66
2023/12/23 00:54:58;;;;;;;8.50;2.03;;;;;;;4.77;100.00;99380.03;5011501;28;20053;-66
2023/12/23 00:57:25;;;;;;;3.90;1.70;;;;;;;4.72;100.00;99369.81;5010807;28;20050;-66
2023/12/23 00:59:54;;;;;;;5.03;2.35;;;;;;;4.74;100.00;99383.56;5006432;28;20484;-66
2023/12/23 01:02:21;;;;;;;4.82;1.67;;;;;;;4.74;100.00;99378.38;5010299;28;20046;-65
2023/12/23 01:04:49;;;;;;;2.90;1.30;;;;;;;4.69;100.00;99386.34;5001853;28;20488;-66
2023/12/23 01:07:16;;;;;;;2.85;1.40;;;;;;;4.67;100.00;99390.72;5010420;28;20050;-66
2023/12/23 01:09:42;;;;;;;2.83;1.23;;;;;;;4.71;100.00;99384.53;5010826;28;20042;-66
2023/12/23 01:12:09;;;;;;;2.63;1.33;;;;;;;4.64;100.00;99379.59;5000008;28;20058;-65
2023/12/23 01:14:35;;;;;;;3.05;1.20;;;;;;;4.65;100.00;99387.31;5010824;28;20049;-66
2023/12/23 01:17:03;;;;;;;3.67;1.50;;;;;;;4.63;100.00;99398.66;5009013;28;20054;-66
2023/12/23 01:19:30;;;;;;;3.28;1.30;;;;;;;4.66;100.00;99390.78;5009568;28;20072;-66
2023/12/23 01:21:57;;;;;;;3.03;1.23;;;;;;;4.72;100.00;99385.38;4997020;28;20679;-65
2023/12/23 01:24:24;;;;;;;1.75;1.05;;;;;;;4.69;100.00;99383.75;5011474;28;21059;-66
2023/12/23 01:26:50;;;;;;;2.80;1.30;;;;;;;4.65;100.00;99395.09;5006087;28;20054;-65
2023/12/23 01:29:17;;;;;;;2.72;1.30;;;;;;;4.56;100.00;99396.25;5009816;28;20045;-66
2023/12/23 01:31:44;;;;;;;2.28;1.17;;;;;;;4.60;100.00;99394.41;4995730;28;20504;-66
2023/12/23 01:34:10;;;;;;;2.30;1.20;;;;;;;4.56;100.00;99398.03;5006035;28;20450;-66
2023/12/23 01:36:37;;;;;;;2.25;1.20;;;;;;;4.61;100.00;99395.28;5011017;28;20495;-66
2023/12/23 01:39:04;;;;;;;2.08;1.10;;;;;;;4.50;100.00;99398.25;5010094;28;20041;-66
2023/12/23 01:41:31;;;;;;;2.55;1.20;;;;;;;4.61;100.00;99392.69;5008107;28;20057;-66
2023/12/23 01:43:57;;;;;;;1.83;1.10;;;;;;;4.53;100.00;99400.72;5010030;28;20045;-66
2023/12/23 01:46:25;;;;;;;3.58;1.48;;;;;;;4.37;100.00;99396.06;5010288;28;20486;-66
2023/12/23 01:48:52;;;;;;;1.65;0.93;;;;;;;4.35;100.00;99395.25;5008318;28;20053;-65
2023/12/23 01:51:19;;;;;;;2.03;1.00;;;;;;;4.31;100.00;99383.31;5008689;28;20573;-66
2023/12/23 01:53:46;;;;;;;1.67;1.08;;;;;;;4.24;100.00;99389.59;5009938;28;20046;-65
2023/12/23 01:56:14;;;;;;;1.20;1.00;;;;;;;4.24;100.00;99388.75;5010018;28;20046;-66
2023/12/23 01:58:41;;;;;;;1.88;1.13;;;;;;;4.25;100.00;99387.84;5009032;28;20479;-66
2023/12/23 02:01:07;;;;;;;1.85;1.00;;;;;;;4.17;100.00;99385.50;5003835;28;20088;-65
2023/12/23 02:03:34;;;;;;;3.13;1.10;;;;;;;4.13;100.00;99381.34;5006823;28;20187;-65
2023/12/23 02:06:01;;;;;;;1.52;1.02;;;;;;;4.12;100.00;99382.22;5010751;28;20133;-66
2023/12/23 02:08:28;;;;;;;1.65;1.08;;;;;;;4.04;100.00;99366.06;4996390;28;20149;-65
2023/12/23 02:11:05;;;;;;;1.38;1.00;;;;;;;4.15;100.00;99388.13;5009160;28;20058;-65
2023/12/23 02:13:40;;;;;;;2.05;1.00;;;;;;;4.14;100.00;99383.00;5009551;28;20081;-65
2023/12/23 02:16:08;;;;;;;2.05;1.02;;;;;;;4.13;100.00;99386.50;5008788;28;20109;-65
2023/12/23 02:18:35;;;;;;;1.60;1.00;;;;;;;4.01;100.00;99373.97;5000497;28;20379;-65
2023/12/23 02:21:02;;;;;;;1.25;0.90;;;;;;;4.06;100.00;99366.88;4998967;28;20074;-66
2023/12/23 02:23:28;;;;;;;2.42;1.25;;;;;;;4.10;100.00;99374.50;5006770;28;20484;-65
2023/12/23 02:25:59;;;;;;;1.40;1.10;;;;;;;4.06;100.00;99380.69;5009310;28;20385;-65
2023/12/23 02:28:26;;;;;;;1.75;1.00;;;;;;;4.02;100.00;99376.50;5006547;28;20053;-65
2023/12/23 02:30:53;;;;;;;1.80;1.08;;;;;;;4.00;100.00;99367.91;4997437;28;20046;-65
2023/12/23 02:33:21;;;;;;;1.10;1.00;;;;;;;4.05;100.00;99373.78;5008428;28;20189;-65
2023/12/23 02:35:52;;;;;;;3.55;1.20;;;;;;;4.01;100.00;99361.00;5004448;28;20121;-65
2023/12/23 02:38:22;;;;;;;2.97;1.33;;;;;;;4.00;100.00;99378.28;5003904;28;20148;-65
2023/12/23 02:40:49;;;;;;;1.45;0.98;;;;;;;4.01;100.00;99374.78;4997954;28;20053;-65
2023/12/23 02:43:16;;;;;;;1.27;1.02;;;;;;;4.03;100.00;99385.94;5006978;28;20404;-65
2023/12/23 02:45:42;;;;;;;1.00;0.90;;;;;;;4.03;100.00;99385.09;5008615;28;20042;-65
2023/12/23 02:48:09;;;;;;;2.00;1.38;;;;;;;3.96;100.00;99384.47;5007247;28;20056;-65
2023/12/23 02:50:36;;;;;;;1.17;1.00;;;;;;;3.89;100.00;99373.44;5006215;28;20057;-65
2023/12/23 02:53:03;;;;;;;1.40;1.00;;;;;;;3.92;100.00;99372.50;5009730;28;20054;-65
2023/12/23 02:55:32;;;;;;;1.63;1.10;;;;;;;3.83;100.00;99372.81;5004792;28;20387;-65
2023/12/23 02:57:58;;;;;;;2.03;1.00;;;;;;;3.91;100.00;99379.44;5009962;28;20046;-65
2023/12/23 03:00:25;;;;;;;1.15;1.00;;;;;;;3.92;100.00;99382.88;5004616;28;20046;-66
2023/12/23 03:02:51;;;;;;;1.23;1.00;;;;;;;3.89;100.00;99376.03;5009663;28;20050;-65
2023/12/23 03:05:18;;;;;;;1.67;1.05;;;;;;;3.93;100.00;99377.66;5009373;28;20072;-66
2023/12/23 03:07:47;;;;;;;1.88;1.05;;;;;;;3.90;100.00;99375.16;5009349;28;20426;-65
2023/12/23 03:10:15;;;;;;;1.00;0.85;;;;;;;4.01;100.00;99382.56;4994962;28;20104;-65
2023/12/23 03:12:41;;;;;;;1.10;1.00;;;;;;;4.01;100.00;99373.97;5006683;28;20057;-65
2023/12/23 03:15:08;;;;;;;1.30;1.00;;;;;;;4.12;100.00;99390.00;5012896;28;20132;-65
2023/12/23 03:17:35;;;;;;;1.50;1.02;;;;;;;4.01;100.00;99385.16;5012186;28;20076;-65
2023/12/23 03:20:02;;;;;;;1.25;0.95;;;;;;;3.94;100.00;99374.13;5009509;28;20050;-65
2023/12/23 03:22:29;;;;;;;1.70;1.00;;;;;;;3.93;100.00;99384.53;5003116;28;20125;-65
2023/12/23 03:24:56;;;;;;;1.30;1.00;;;;;;;3.96;100.00;99380.13;5011138;28;20497;-65
2023/12/23 03:27:23;;;;;;;1.45;0.90;;;;;;;3.97;100.00;99384.41;5005949;28;20412;-65
2023/12/23 03:29:49;;;;;;;0.82;0.80;;;;;;;3.94;100.00;99379.31;5004132;28;20058;-65
2023/12/23 03:32:16;;;;;;;1.70;1.15;;;;;;;3.91;100.00;99376.84;5011944;28;20479;-65
2023/12/23 03:34:43;;;;;;;1.38;1.00;;;;;;;3.99;100.00;99386.97;5012565;28;20085;-65
2023/12/23 03:37:10;;;;;;;1.58;1.15;;;;;;;3.91;100.00;99373.41;5012743;28;20487;-65
2023/12/23 03:39:36;;;;;;;1.33;0.93;;;;;;;3.86;100.00;99383.03;5013037;28;20472;-66
2023/12/23 03:42:03;;;;;;;1.45;1.00;;;;;;;3.88;100.00;99384.72;5008755;28;20057;-65
2023/12/23 03:44:30;;;;;;;1.00;0.90;;;;;;;3.87;100.00;99383.00;4995082;28;20061;-66
2023/12/23 03:46:56;;;;;;;1.13;1.00;;;;;;;3.82;100.00;99376.28;5009733;28;20076;-65
2023/12/23 03:49:23;;;;;;;1.30;1.00;;;;;;;3.80;100.00;99377.16;5001475;28;20484;-65
2023/12/23 03:51:49;;;;;;;1.00;0.90;;;;;;;3.76;100.00;99366.97;5008522;28;20050;-65
2023/12/23 03:54:16;;;;;;;1.67;0.90;;;;;;;3.65;100.00;99379.38;5012575;28;20045;-65
2023/12/23 03:56:43;;;;;;;1.25;1.00;;;;;;;3.69;100.00;99384.44;5011548;28;20073;-65
2023/12/23 03:59:09;;;;;;;1.52;0.95;;;;;;;3.64;100.00;99380.28;5011892;28;20285;-65
2023/12/23 04:01:36;;;;;;;0.88;0.85;;;;;;;3.61;100.00;99378.63;5010918;28;20094;-65
2023/12/23 04:04:03;;;;;;;1.58;1.00;;;;;;;3.67;100.00;99381.06;5006290;28;20416;-65
2023/12/23 04:06:30;;;;;;;1.02;0.93;;;;;;;3.64;100.00;99377.72;5006515;28;20062;-65
2023/12/23 04:08:57;;;;;;;1.20;0.90;;;;;;;3.58;100.00;99365.81;5001966;28;20537;-65
2023/12/23 04:11:24;;;;;;;1.10;1.00;;;;;;;3.67;100.00;99377.63;5004531;28;20097;-64
2023/12/23 04:13:50;;;;;;;1.05;0.90;;;;;;;3.67;100.00;99372.44;5011637;28;20046;-65
2023/12/23 04:16:17;;;;;;;1.20;1.00;;;;;;;3.69;100.00;99375.81;5011362;28;20145;-65
2023/12/23 04:18:43;;;;;;;1.70;1.00;;;;;;;3.66;100.00;99374.16;5011252;28;20499;-65
2023/12/23 04:21:10;;;;;;;1.00;0.90;;;;;;;3.56;100.00;99370.16;5008696;28;20550;-65
2023/12/23 04:23:37;;;;;;;1.00;0.90;;;;;;;3.57;100.00;99375.28;5011414;28;20455;-65
2023/12/23 04:26:04;;;;;;;1.50;0.98;;;;;;;3.52;100.00;99368.56;5011892;28;20054;-65
2023/12/23 04:28:31;;;;;;;1.00;0.90;;;;;;;3.54;100.00;99371.94;5010725;28;20217;-64
2023/12/23 04:30:58;;;;;;;1.70;1.00;;;;;;;3.53;100.00;99376.28;4991829;28;20056;-65
2023/12/23 04:33:25;;;;;;;1.05;0.90;;;;;;;3.42;100.00;99368.84;5010904;28;20052;-65
2023/12/23 04:35:52;;;;;;;1.00;0.90;;;;;;;3.49;100.00;99363.47;5000877;28;20126;-65
2023/12/23 04:38:19;;;;;;;0.90;0.90;;;;;;;3.48;100.00;99351.44;5001614;28;20056;-65
2023/12/23 04:40:46;;;;;;;1.10;1.00;;;;;;;3.48;100.00;99352.28;5004557;28;20516;-65
2023/12/23 04:43:12;;;;;;;1.00;0.90;;;;;;;3.50;100.00;99363.44;5011099;28;20365;-65
2023/12/23 04:45:39;;;;;;;1.38;1.00;;;;;;;3.47;100.00;99360.97;5010697;28;20050;-65
2023/12/23 04:48:06;;;;;;;1.00;0.90;;;;;;;3.43;100.00;99354.16;5011470;28;20140;-65
2023/12/23 04:50:33;;;;;;;1.00;0.90;;;;;;;3.41;100.00;99351.63;5003695;28;20424;-65
2023/12/23 04:52:59;;;;;;;1.00;0.90;;;;;;;3.34;100.00;99354.44;5011442;28;20060;-64
2023/12/23 04:55:26;;;;;;;1.00;0.90;;;;;;;3.39;100.00;99350.00;5012105;28;20042;-65
2023/12/23 04:57:53;;;;;;;1.10;1.00;;;;;;;3.44;100.00;99352.44;5012063;28;20648;-65
2023/12/23 05:00:19;;;;;;;1.20;1.00;;;;;;;3.54;100.00;99346.94;5005294;28;20080;-65
2023/12/23 05:02:46;;;;;;;1.10;1.00;;;;;;;3.50;100.00;99347.06;5010881;28;20061;-64
2023/12/23 05:05:13;;;;;;;1.00;0.90;;;;;;;3.47;100.00;99353.19;4993098;28;20124;-65
2023/12/23 05:07:40;;;;;;;1.00;0.90;;;;;;;3.51;100.00;99359.97;5011352;28;20459;-65
2023/12/23 05:10:07;;;;;;;1.00;0.90;;;;;;;3.37;100.00;99359.53;5010295;28;20541;-65
2023/12/23 05:12:34;;;;;;;1.70;1.55;;;;;;;3.32;100.00;99361.41;5011147;28;20050;-64
2023/12/23 05:15:01;;;;;;;1.85;1.10;;;;;;;3.28;100.00;99352.91;5010304;28;20058;-65
2023/12/23 05:17:28;;;;;;;3.05;0.90;;;;;;;3.16;100.00;99348.94;5010195;28;20064;-65
2023/12/23 05:19:56;;;;;;;2.58;1.05;;;;;;;2.91;100.00;99338.44;5009069;28;20537;-65
2023/12/23 05:22:23;;;;;;;2.58;1.20;;;;;;;3.03;100.00;99347.59;5009651;28;20049;-65
2023/12/23 05:24:50;;;;;;;1.85;1.10;;;;;;;3.02;100.00;99341.56;5004124;28;20104;-64
2023/12/23 05:27:16;;;;;;;1.88;1.15;;;;;;;2.97;100.00;99342.59;5010947;28;20053;-64
2023/12/23 05:29:43;;;;;;;2.45;1.17;;;;;;;2.83;100.00;99323.16;5006115;28;20488;-64
2023/12/23 05:32:10;;;;;;;1.75;1.10;;;;;;;2.80;100.00;99309.50;5009469;28;20420;-64
2023/12/23 05:34:37;;;;;;;1.90;1.10;;;;;;;2.98;100.00;99341.72;5009181;28;20054;-65
2023/12/23 05:37:03;;;;;;;2.47;1.10;;;;;;;2.97;100.00;99345.19;5005213;28;20057;-65
2023/12/23 05:39:30;;;;;;;1.65;1.10;;;;;;;2.91;100.00;99341.03;5000207;28;20532;-64
2023/12/23 05:41:58;;;;;;;2.42;1.20;;;;;;;2.96;100.00;99348.69;5004163;28;20056;-64
2023/12/23 05:44:24;;;;;;;2.63;1.20;;;;;;;2.93;100.00;99338.41;5010331;28;20050;-64
2023/12/23 05:46:51;;;;;;;1.35;1.00;;;;;;;3.03;100.00;99348.44;5011063;28;20237;-64
2023/12/23 05:49:18;;;;;;;1.80;1.10;;;;;;;3.12;100.00;99352.50;5010567;28;20100;-64
2023/12/23 05:51:47;;;;;;;2.40;1.65;;;;;;;3.06;100.00;99344.06;5000721;28;20053;-64
2023/12/23 05:54:14;;;;;;;1.42;1.10;;;;;;;3.07;100.00;99343.19;5009720;28;20400;-65
2023/12/23 05:56:41;;;;;;;2.35;1.10;;;;;;;3.06;100.00;99347.50;5009735;28;20049;-64
2023/12/23 05:59:08;;;;;;;1.85;1.02;;;;;;;2.99;100.00;99346.84;5003514;28;20463;-64
2023/12/23 06:01:35;;;;;;;1.33;1.00;;;;;;;2.82;100.00;99324.06;4999821;28;20054;-64
2023/12/23 06:04:01;;;;;;;1.92;1.00;;;;;;;2.98;100.00;99352.06;5009933;28;20615;-64
2023/12/23 06:06:28;;;;;;;1.45;1.05;;;;;;;3.01;100.00;99333.84;5010314;28;20093;-64
2023/12/23 06:08:55;;;;;;;2.00;1.10;;;;;;;2.88;100.00;99342.88;5010542;28;20393;-64
2023/12/23 06:11:21;;;;;;;2.58;1.30;;;;;;;2.82;100.00;99349.91;5007239;28;20492;-64
2023/12/23 06:13:48;;;;;;;2.30;1.25;;;;;;;2.85;100.00;99344.66;5010180;28;20049;-64
2023/12/23 06:16:15;;;;;;;2.47;1.20;;;;;;;2.88;100.00;99342.88;5010139;28;20136;-64
2023/12/23 06:18:41;;;;;;;1.23;0.90;;;;;;;2.84;100.00;99334.34;5008321;28;20057;-64
2023/12/23 06:21:08;;;;;;;1.95;1.17;;;;;;;2.89;100.00;99348.00;5008760;28;20081;-64
2023/12/23 06:23:35;;;;;;;1.80;1.10;;;;;;;2.94;100.00;99335.78;5003667;28;20515;-64
2023/12/23 06:26:03;;;;;;;2.70;1.10;;;;;;;2.89;100.00;99337.66;5007908;28;20137;-64
2023/12/23 06:28:29;;;;;;;1.65;1.00;;;;;;;2.85;100.00;99339.47;5007121;28;20056;-64
2023/12/23 06:30:56;;;;;;;1.90;1.15;;;;;;;2.85;100.00;99342.06;5003523;28;20405;-64
2023/12/23 06:33:23;;;;;;;1.90;1.00;;;;;;;2.90;100.00;99344.50;5009490;28;20054;-64
2023/12/23 06:35:49;;;;;;;2.15;1.17;;;;;;;2.93;100.00;99344.41;5009767;28;20148;-64
2023/12/23 06:38:17;;;;;;;2.05;1.10;;;;;;;2.96;100.00;99330.56;5009814;28;20050;-64
2023/12/23 06:40:45;;;;;;;1.33;1.02;;;;;;;2.92;100.00;99334.13;5002814;28;20131;-64
2023/12/23 06:43:11;;;;;;;1.55;1.00;;;;;;;3.04;100.00;99344.94;5006546;28;20060;-64
2023/12/23 06:45:59;;;;;;;3.50;1.02;;;;;;;2.98;100.00;99326.19;5008115;28;20042;-64
2023/12/23 06:48:26;;;;;;;2.15;1.10;;;;;;;3.08;100.00;99350.91;5009655;28;20060;-64
2023/12/23 06:50:58;;;;;;;1.95;1.10;;;;;;;3.08;100.00;99348.31;5008639;28;20053;-64
2023/12/23 06:53:25;;;;;;;2.10;1.10;;;;;;;2.97;100.00;99327.91;5010289;28;20598;-64
2023/12/23 06:55:51;;;;;;;1.38;1.10;;;;;;;2.80;100.00;99325.00;5009554;28;20107;-64
2023/12/23 06:58:18;;;;;;;2.17;1.25;;;;;;;2.89;100.00;99332.47;5007599;28;20060;-65
2023/12/23 07:00:45;;;;;;;1.75;1.08;;;;;;;2.80;100.00;99314.66;4998742;28;20058;-64
2023/12/23 07:03:12;;;;;;;2.15;1.17;;;;;;;2.85;100.00;99328.28;5005928;28;20421;-65
2023/12/23 07:05:38;;;;;;;2.33;1.20;;;;;;;2.87;100.00;99330.81;4996103;28;20046;-64
2023/12/23 07:08:06;;;;;;;2.10;1.20;;;;;;;2.63;100.00;99315.13;5005677;28;20049;-64
2023/12/23 07:10:33;;;;;;;1.90;1.20;;;;;;;2.73;100.00;99326.91;5007827;28;20057;-64
2023/12/23 07:13:00;;;;;;;2.80;1.20;;;;;;;2.71;100.00;99323.53;5009505;28;20062;-65
2023/12/23 07:15:26;;;;;;;3.30;1.30;;;;;;;2.73;100.00;99328.66;5010129;28;20483;-64
2023/12/23 07:17:53;;;;;;;1.85;1.05;;;;;;;2.65;100.00;99319.34;5007826;28;20503;-65
2023/12/23 07:20:20;;;;;;;1.95;1.15;;;;;;;2.71;100.00;99315.75;5004881;28;20109;-64
2023/12/23 07:22:48;;;;;;;2.25;1.13;;;;;;;2.70;100.00;99326.97;5009168;28;20137;-65
2023/12/23 07:25:15;;;;;;;3.08;1.30;;;;;;;2.79;100.00;99329.28;5008328;28;20054;-65
2023/12/23 07:27:42;;;;;;;2.95;1.25;;;;;;;2.80;100.00;99320.66;5008465;28;20061;-65
2023/12/23 07:30:10;;;;;;;3.10;1.20;;;;;;;2.78;100.00;99313.81;5003987;28;20502;-65
2023/12/23 07:32:36;;;;;;;3.65;1.50;;;;;;;2.89;100.00;99326.47;4998181;28;20503;-65
2023/12/23 07:35:04;;;;;;;2.30;1.20;;;;;;;2.88;100.00;99325.59;4999549;28;20462;-65
2023/12/23 07:37:30;;;;;;;2.80;1.30;;;;;;;2.82;100.00;99307.69;5002223;28;20061;-65
2023/12/23 07:39:57;;;;;;;3.10;1.50;;;;;;;2.77;100.00;99304.41;5000483;28;20050;-65
2023/12/23 07:42:24;;;;;;;3.75;1.50;;;;;;;2.69;100.00;99298.59;4998019;28;20424;-65
2023/12/23 07:44:51;;;;;;;4.53;1.85;;;;;;;2.80;100.00;99288.81;5000114;28;20049;-65
2023/12/23 07:47:17;;;;;;;3.67;1.73;;;;;;;2.89;100.00;99298.03;4998557;28;20050;-65
2023/12/23 07:49:44;;;;;;;5.35;1.67;;;;;;;2.94;100.00;99306.47;4998096;28;20141;-65
2023/12/23 07:52:11;;;;;;;3.47;1.42;;;;;;;2.89;100.00;99306.63;4997742;28;20078;-66
2023/12/23 07:54:37;;;;;;;4.03;1.58;;;;;;;2.83;100.00;99307.66;4993564;28;20052;-65
2023/12/23 07:57:04;;;;;;;3.50;1.48;;;;;;;2.79;100.00;99300.03;4999278;28;20058;-65
2023/12/23 07:59:31;;;;;;;2.15;1.27;;;;;;;2.80;100.00;99297.41;5004158;28;20555;-65
2023/12/23 08:01:58;;;;;;;2.83;1.50;;;;;;;2.77;100.00;99304.41;5006680;28;20510;-66
2023/12/23 08:04:25;;;;;;;4.75;1.83;;;;;;;2.74;100.00;99307.91;5005774;28;20100;-66
2023/12/23 08:06:52;;;;;;;4.85;1.92;;;;;;;2.88;100.00;99315.25;5007685;28;20046;-66
2023/12/23 08:09:20;;;;;;;4.00;1.83;;;;;;;2.84;100.00;99316.25;5002520;28;20053;-66
2023/12/23 08:11:47;;;;;;;4.70;1.85;;;;;;;2.90;100.00;99312.63;5003741;28;20145;-65
2023/12/23 08:14:14;;;;;;;5.40;2.00;;;;;;;3.04;100.00;99321.69;4999651;28;20058;-65
2023/12/23 08:16:41;;;;;;;4.72;1.73;;;;;;;3.01;100.00;99319.19;5000058;28;20046;-65
2023/12/23 08:19:07;;;;;;;5.30;2.00;;;;;;;3.06;100.00;99325.97;5002689;28;20451;-65
2023/12/23 08:21:34;;;;;;;5.28;2.13;;;;;;;3.11;100.00;99339.63;5008482;28;20498;-65
2023/12/23 08:24:03;;;;;;;4.30;1.70;;;;;;;3.02;100.00;99332.97;5006386;28;20054;-65
2023/12/23 08:26:30;;;;;;;4.18;1.92;;;;;;;3.07;100.00;99338.03;5003969;28;20388;-65
2023/12/23 08:28:57;;;;;;;4.05;1.73;;;;;;;3.00;100.00;99332.19;5004906;28;20396;-65
2023/12/23 08:31:24;;;;;;;4.80;1.90;;;;;;;2.94;100.00;99334.91;5008051;28;20049;-65
2023/12/23 08:33:51;;;;;;;3.67;1.60;;;;;;;2.93;100.00;99328.91;5005788;28;20082;-65
2023/12/23 08:36:18;;;;;;;5.28;2.13;;;;;;;2.97;100.00;99327.91;5011475;28;20042;-65
2023/12/23 08:38:44;;;;;;;5.47;1.95;;;;;;;2.91;100.00;99330.69;4997926;28;20061;-65
2023/12/23 08:41:11;;;;;;;5.25;1.80;;;;;;;2.89;100.00;99316.13;5002704;28;20125;-65
2023/12/23 08:43:38;;;;;;;3.63;1.50;;;;;;;2.93;100.00;99333.25;5007400;28;20057;-64
2023/12/23 08:46:05;;;;;;;4.15;1.65;;;;;;;2.95;100.00;99332.28;5007642;28;20045;-65
2023/12/23 08:48:31;;;;;;;5.63;1.85;;;;;;;3.00;100.00;99339.94;5006306;28;20090;-65
2023/12/23 08:50:58;;;;;;;5.13;1.70;;;;;;;2.98;100.00;99339.13;4996328;28;20085;-65
2023/12/23 08:53:25;;;;;;;5.13;1.95;;;;;;;2.94;100.00;99334.91;4994318;28;20053;-65
2023/12/23 08:55:52;;;;;;;4.35;1.90;;;;;;;2.98;100.00;99332.22;5003243;28;20491;-65
2023/12/23 08:58:18;;;;;;;6.20;1.98;;;;;;;2.99;100.00;99330.47;4997072;28;20061;-66
2023/12/23 09:00:45;;;;;;;7.28;2.30;;;;;;;3.00;100.00;99334.75;5000641;28;20049;-65
2023/12/23 09:03:12;;;;;;;8.27;2.67;;;;;;;2.98;100.00;99326.19;5005815;28;20124;-66
2023/12/23 09:05:38;;;;;;;7.78;2.60;;;;;;;2.98;100.00;99327.03;4985410;28;20050;-66
2023/12/23 09:08:05;;;;;;;7.38;2.47;;;;;;;3.03;100.00;99321.75;5002253;28;20447;-66
2023/12/23 09:10:33;;;;;;;7.97;2.70;;;;;;;2.92;100.00;99313.44;5002324;28;20053;-66
2023/12/23 09:13:00;;;;;;;14.23;5.55;;;;;;;2.99;100.00;99327.88;4998100;28;20141;-65
2023/12/23 09:15:27;;;;;;;9.38;3.50;;;;;;;2.98;100.00;99328.78;4999606;28;20052;-66
2023/12/23 09:17:53;;;;;;;8.98;3.70;;;;;;;2.94;100.00;99322.00;5003601;28;20057;-66
2023/12/23 09:20:21;;;;;;;9.70;3.58;;;;;;;3.04;100.00;99326.00;5002642;28;20050;-66
2023/12/23 09:22:47;;;;;;;8.98;2.85;;;;;;;3.07;100.00;99331.09;5009597;28;20061;-66
2023/12/23 09:25:15;;;;;;;8.32;3.70;;;;;;;3.17;100.00;99344.59;5005695;28;20444;-65
2023/12/23 09:27:42;;;;;;;8.60;3.53;;;;;;;3.04;100.00;99351.88;5002996;28;20054;-64
2023/12/23 09:30:09;;;;;;;9.68;3.85;;;;;;;2.98;100.00;99341.72;5001855;28;20049;-64
2023/12/23 09:32:35;;;;;;;9.18;3.35;;;;;;;2.91;100.00;99322.94;5002321;28;20056;-66
2023/12/23 09:35:02;;;;;;;7.03;2.63;;;;;;;3.02;100.00;99331.22;4997602;28;20050;-64
2023/12/23 09:37:32;;;;;;;8.45;3.17;;;;;;;2.84;100.00;99311.91;4997664;28;20459;-65
2023/12/23 09:40:01;;;;;;;9.63;3.38;;;;;;;2.95;100.00;99327.13;4992977;28;20050;-65
2023/12/23 09:42:28;;;;;;;11.30;3.38;;;;;;;2.96;100.00;99322.81;5006647;28;20062;-64
2023/12/23 09:44:55;;;;;;;8.70;3.13;;;;;;;2.92;100.00;99311.72;5007873;28;20050;-64
2023/12/23 09:47:21;;;;;;;6.90;2.55;;;;;;;2.98;100.00;99327.03;5002462;28;20047;-64
2023/12/23 09:49:48;;;;;;;9.20;3.10;;;;;;;2.93;100.00;99320.31;5004286;28;20054;-64
2023/12/23 09:52:15;;;;;;;7.63;2.80;;;;;;;2.93;100.00;99322.91;5000621;28;20042;-65
2023/12/23 09:54:47;;;;;;;7.78;2.50;;;;;;;3.02;100.00;99338.13;5008195;28;20069;-65
2023/12/23 09:57:15;;;;;;;7.22;3.20;;;;;;;3.11;100.00;99347.38;4982905;28;20465;-65
2023/12/23 09:59:42;;;;;;;7.82;3.22;;;;;;;3.10;100.00;99340.50;4998646;28;20471;-66
2023/12/23 10:02:09;;;;;;;7.00;2.80;;;;;;;3.06;100.00;99338.91;5007474;28;20092;-66
2023/12/23 10:04:36;;;;;;;11.65;4.20;;;;;;;2.97;100.00;99319.31;5002059;28;20412;-67
2023/12/23 10:07:03;;;;;;;10.18;3.92;;;;;;;3.02;100.00;99336.41;4989002;28;20124;-67
2023/12/23 10:09:30;;;;;;;11.20;3.50;;;;;;;3.04;100.00;99336.34;5004240;28;20502;-67
2023/12/23 10:11:56;;;;;;;9.57;3.42;;;;;;;3.00;100.00;99311.50;5003160;28;20050;-67
2023/12/23 10:14:25;;;;;;;7.85;3.17;;;;;;;3.06;100.00;99319.03;4998390;28;20141;-67
2023/12/23 10:16:53;;;;;;;7.95;3.17;;;;;;;3.06;100.00;99308.69;4996171;28;20081;-67
2023/12/23 10:19:20;;;;;;;8.30;3.47;;;;;;;3.05;100.00;99317.38;5005101;28;20160;-66
2023/12/23 10:21:50;;;;;;;8.48;3.50;;;;;;;3.02;100.00;99299.34;4994503;28;20089;-66
2023/12/23 10:24:17;;;;;;;7.88;3.20;;;;;;;3.09;100.00;99311.22;4995361;28;20132;-67
2023/12/23 10:26:44;;;;;;;8.95;3.45;;;;;;;3.11;100.00;99299.06;5007274;28;20053;-66
2023/12/23 10:29:14;;;;;;;8.43;3.20;;;;;;;3.09;100.00;99287.94;5003089;28;20065;-67
2023/12/23 10:31:45;;;;;;;9.60;4.30;;;;;;;3.17;100.00;99295.44;5002103;28;20141;-66
2023/12/23 10:34:15;;;;;;;8.55;3.88;;;;;;;3.09;100.00;99282.75;5008656;28;20080;-66
2023/12/23 10:36:42;;;;;;;11.25;3.25;;;;;;;3.15;100.00;99279.13;5008117;28;20050;-67
2023/12/23 10:39:29;;;;;;;7.68;2.97;;;;;;;3.29;100.00;99281.31;5005697;28;20517;-66
2023/12/23 10:42:11;;;;;;;8.48;3.38;;;;;;;3.24;100.00;99265.94;5004981;28;20542;-66
2023/12/23 10:44:41;;;;;;;7.25;3.20;;;;;;;3.22;100.00;99257.34;5009600;28;20050;-66
2023/12/23 10:47:09;;;;;;;8.10;3.10;;;;;;;3.11;100.00;99254.28;5001433;28;20042;-67
2023/12/23 10:49:36;;;;;;;8.52;2.78;;;;;;;3.23;100.00;99256.47;5002767;28;20054;-67
2023/12/23 10:52:05;;;;;;;7.15;2.85;;;;;;;3.22;100.00;99259.94;5003951;28;20488;-67
2023/12/23 10:54:33;;;;;;;7.20;2.88;;;;;;;3.25;100.00;99264.19;5006505;28;20519;-67
2023/12/23 10:57:01;;;;;;;9.57;2.95;;;;;;;3.25;100.00;99270.22;5007781;28;20333;-66
2023/12/23 10:59:28;;;;;;;6.72;2.63;;;;;;;3.23;100.00;99270.25;5004895;28;20153;-66
2023/12/23 11:01:56;;;;;;;8.10;2.92;;;;;;;3.32;100.00;99276.03;5007562;28;20050;-66
2023/12/23 11:04:27;;;;;;;8.23;3.40;;;;;;;3.21;100.00;99253.09;5006590;28;20061;-66
2023/12/23 11:06:55;;;;;;;7.90;3.17;;;;;;;3.17;100.00;99244.59;5006641;28;20034;-66
2023/12/23 11:09:26;;;;;;;8.10;3.15;;;;;;;3.26;100.00;99245.16;5000599;28;20571;-66
2023/12/23 11:11:53;;;;;;;6.28;2.60;;;;;;;3.40;100.00;99253.38;4997616;28;20081;-66
2023/12/23 11:14:20;;;;;;;6.75;2.83;;;;;;;3.36;100.00;99246.59;5003140;28;20054;-66
2023/12/23 11:16:50;;;;;;;7.30;2.95;;;;;;;3.38;100.00;99237.91;5007288;28;20389;-66
2023/12/23 11:19:17;;;;;;;8.15;3.00;;;;;;;3.47;100.00;99260.03;5008871;28;20539;-66
2023/12/23 11:21:44;;;;;;;6.93;2.88;;;;;;;3.29;100.00;99251.09;5004915;28;20488;-66
2023/12/23 11:24:30;;;;;;;7.05;3.03;;;;;;;3.39;100.00;99251.66;4995976;28;20046;-66
2023/12/23 11:26:57;;;;;;;7.38;2.92;;;;;;;3.30;100.00;99239.03;4990428;28;20050;-66
2023/12/23 11:29:23;;;;;;;6.40;2.47;;;;;;;3.41;100.00;99232.59;5005090;28;20476;-67
2023/12/23 11:31:50;;;;;;;6.88;2.80;;;;;;;3.42;100.00;99234.31;5002899;28;20436;-66
2023/12/23 11:34:20;;;;;;;5.03;2.13;;;;;;;3.51;100.00;99235.75;5012342;28;20049;-66